Time;durP1;ratioP1;P1;durP2;ratioP2;P2;SDS_P1;SDS_P2;PMS_P1;PMS_P2;Temp;Humidity;BMP_temperature;BMP_pressure;BME280_temperature;BME280_humidity;BME280_pressure;Samples;Min_cycle;Max_cycle;Signal;HPM_P1;HPM_P2
2022/01/29 00:01:29;;;;;;;61.83;35.78;;;;;;;5.31;100.00;102824.69;10458811;28;20049;-56
2022/01/29 00:06:31;;;;;;;70.75;35.80;;;;;;;5.30;100.00;102808.25;10458588;28;20049;-58
2022/01/29 00:11:35;;;;;;;70.15;37.78;;;;;;;5.33;100.00;102795.25;10458082;28;20493;-57
2022/01/29 00:16:40;;;;;;;60.97;35.40;;;;;;;5.35;100.00;102784.88;10458044;28;20413;-56
2022/01/29 00:21:43;;;;;;;65.70;33.80;;;;;;;5.28;100.00;102784.03;10458645;28;20111;-56
2022/01/29 00:26:45;;;;;;;71.57;37.53;;;;;;;5.31;100.00;102768.44;10458073;28;20045;-56
2022/01/29 00:31:47;;;;;;;64.57;36.08;;;;;;;5.28;100.00;102755.44;10457515;28;20052;-57
2022/01/29 00:36:50;;;;;;;62.00;35.35;;;;;;;5.22;100.00;102730.34;10457146;28;20049;-53
2022/01/29 00:41:52;;;;;;;79.45;40.65;;;;;;;5.20;100.00;102745.06;10457269;28;20052;-58
2022/01/29 00:47:15;;;;;;;84.78;45.28;;;;;;;5.16;100.00;102745.09;10456955;28;20398;-57
2022/01/29 00:52:17;;;;;;;74.88;38.13;;;;;;;5.28;100.00;102736.38;10457148;28;20067;-59
2022/01/29 00:57:20;;;;;;;91.70;44.17;;;;;;;5.19;100.00;102726.91;10456944;28;20076;-57
2022/01/29 01:02:22;;;;;;;81.15;41.92;;;;;;;5.19;100.00;102707.00;10455505;28;20049;-58
2022/01/29 01:07:25;;;;;;;75.00;38.50;;;;;;;5.32;100.00;102686.16;10457094;28;20049;-59
2022/01/29 01:12:27;;;;;;;71.88;38.78;;;;;;;5.28;100.00;102693.13;10456486;28;20046;-54
2022/01/29 01:17:30;;;;;;;68.13;38.08;;;;;;;5.38;100.00;102687.00;10456123;28;20060;-58
2022/01/29 01:22:32;;;;;;;69.85;40.65;;;;;;;5.31;100.00;102677.53;10456255;28;20057;-57
2022/01/29 01:27:34;;;;;;;86.38;43.65;;;;;;;5.33;100.00;102661.91;10457197;28;20075;-58
2022/01/29 01:32:37;;;;;;;82.38;41.72;;;;;;;5.30;100.00;102651.56;10478204;28;20047;-59
2022/01/29 01:38:11;;;;;;;76.68;42.72;;;;;;;5.32;100.00;102655.84;10456385;28;20061;-57
2022/01/29 01:43:02;;;;;;;77.57;40.75;;;;;;;5.39;100.00;102662.72;10456649;28;20045;-58
2022/01/29 01:48:06;;;;;;;81.70;47.97;;;;;;;5.33;100.00;102656.69;10456863;28;20053;-56
2022/01/29 01:53:08;;;;;;;68.85;40.22;;;;;;;5.39;100.00;102648.88;10460626;28;20477;-56
2022/01/29 01:58:11;;;;;;;87.97;47.67;;;;;;;5.55;100.00;102634.94;10463345;28;20059;-59
2022/01/29 02:03:13;;;;;;;73.63;41.13;;;;;;;5.45;100.00;102619.44;10463453;28;20045;-59
2022/01/29 02:08:16;;;;;;;73.18;40.80;;;;;;;5.57;100.00;102620.19;10463093;28;20497;-58
2022/01/29 02:13:18;;;;;;;82.50;41.65;;;;;;;5.33;100.00;102616.03;10483174;28;20097;-58
2022/01/29 02:18:21;;;;;;;86.10;46.90;;;;;;;5.38;100.00;102603.88;10463833;28;20049;-58
2022/01/29 02:23:23;;;;;;;79.68;43.13;;;;;;;5.34;100.00;102603.91;10462479;28;20065;-59
2022/01/29 02:28:26;;;;;;;84.28;48.10;;;;;;;5.38;100.00;102600.44;10462227;28;20056;-56
2022/01/29 02:33:30;;;;;;;88.70;46.88;;;;;;;5.33;100.00;102590.06;10461077;28;20433;-57
2022/01/29 02:38:33;;;;;;;74.68;43.13;;;;;;;5.48;100.00;102575.22;10460885;28;20048;-57
2022/01/29 02:43:48;;;;;;;72.10;41.17;;;;;;;5.45;100.00;102568.31;10460745;28;20045;-59
2022/01/29 02:48:52;;;;;;;71.93;40.95;;;;;;;5.46;100.00;102558.78;10461592;28;20413;-58
2022/01/29 02:53:54;;;;;;;65.10;39.65;;;;;;;5.35;100.00;102570.13;10483574;28;20409;-59
2022/01/29 02:58:57;;;;;;;75.40;41.10;;;;;;;5.37;100.00;102551.94;10461527;28;20064;-58
2022/01/29 03:03:59;;;;;;;64.97;38.20;;;;;;;5.34;100.00;102538.97;10460101;28;20054;-58
2022/01/29 03:09:02;;;;;;;53.40;33.67;;;;;;;5.37;100.00;102539.78;10460007;28;20045;-56
2022/01/29 03:14:05;;;;;;;55.50;34.10;;;;;;;5.41;100.00;102530.25;10460839;28;20060;-59
2022/01/29 03:19:08;;;;;;;62.88;37.95;;;;;;;5.47;100.00;102535.41;10460579;28;20103;-58
2022/01/29 03:24:10;;;;;;;60.63;37.13;;;;;;;5.37;100.00;102519.00;10458939;28;20513;-57
2022/01/29 03:29:12;;;;;;;54.10;32.55;;;;;;;5.38;100.00;102506.91;10461983;28;20259;-54
2022/01/29 03:34:15;;;;;;;61.58;38.00;;;;;;;5.50;100.00;102516.34;10479423;28;20045;-58
2022/01/29 03:39:17;;;;;;;51.83;32.33;;;;;;;5.48;100.00;102494.69;10459783;28;20057;-58
2022/01/29 03:44:20;;;;;;;61.50;36.60;;;;;;;5.44;100.00;102508.59;10459912;28;20052;-57
2022/01/29 03:49:23;;;;;;;60.72;35.50;;;;;;;5.46;100.00;102499.88;10459807;28;20500;-58
2022/01/29 03:54:25;;;;;;;57.40;34.30;;;;;;;5.43;100.00;102494.75;10459571;28;20055;-57
2022/01/29 03:59:27;;;;;;;47.65;30.83;;;;;;;5.45;100.00;102485.19;10459029;28;20064;-59
2022/01/29 04:04:30;;;;;;;57.72;33.67;;;;;;;5.54;100.00;102479.03;10458536;28;20048;-59
2022/01/29 04:09:32;;;;;;;75.25;39.03;;;;;;;5.49;100.00;102486.03;10475294;28;20059;-55
2022/01/29 04:14:38;;;;;;;66.53;38.17;;;;;;;5.55;100.00;102484.22;10462895;28;20532;-57
2022/01/29 04:20:05;;;;;;;76.03;41.75;;;;;;;5.59;100.00;102482.47;10458207;28;20049;-59
2022/01/29 04:25:08;;;;;;;65.93;39.72;;;;;;;5.52;100.00;102475.59;10457794;28;20061;-59
2022/01/29 04:30:41;;;;;;;66.55;35.80;;;;;;;5.56;100.00;102467.78;10457140;28;20045;-57
2022/01/29 04:35:33;;;;;;;78.63;44.03;;;;;;;5.62;100.00;102461.66;10457267;28;20049;-59
2022/01/29 04:40:36;;;;;;;82.65;44.22;;;;;;;5.72;100.00;102452.03;10457300;28;20049;-58
2022/01/29 04:45:40;;;;;;;82.35;46.28;;;;;;;5.62;100.00;102434.81;10457301;28;20056;-58
2022/01/29 04:50:42;;;;;;;111.25;51.92;;;;;;;5.71;100.00;102435.56;10477690;28;20056;-58
2022/01/29 04:55:45;;;;;;;98.13;51.08;;;;;;;5.69;100.00;102419.13;10457026;28;20056;-56
2022/01/29 05:00:47;;;;;;;87.68;44.30;;;;;;;5.74;100.00;102413.88;10457956;28;20060;-57
2022/01/29 05:05:50;;;;;;;72.75;41.05;;;;;;;5.73;100.00;102407.81;10456646;28;20049;-58
2022/01/29 05:10:54;;;;;;;103.32;55.38;;;;;;;5.77;100.00;102406.91;10456611;28;20045;-59
2022/01/29 05:16:35;;;;;;;83.50;45.60;;;;;;;5.91;100.00;102414.53;10456769;28;20052;-58
2022/01/29 05:27:02;;;;;;;95.57;50.33;;;;;;;5.87;100.00;102412.00;10459774;28;20056;-58
2022/01/29 05:32:08;;;;;;;89.85;44.88;;;;;;;5.99;100.00;102401.47;10469566;28;20029;-57
2022/01/29 05:37:11;;;;;;;109.40;49.20;;;;;;;6.03;100.00;102400.56;10474218;28;20049;-59
2022/01/29 05:42:13;;;;;;;88.80;44.13;;;;;;;5.99;100.00;102403.22;10464289;28;20053;-59
2022/01/29 05:47:16;;;;;;;93.70;47.10;;;;;;;6.11;100.00;102395.25;10464118;28;20056;-59
2022/01/29 05:52:18;;;;;;;99.57;49.45;;;;;;;6.08;100.00;102388.34;10463694;28;20386;-57
2022/01/29 05:57:20;;;;;;;75.47;42.92;;;;;;;6.23;100.00;102396.84;10463302;28;20041;-58
2022/01/29 06:02:22;;;;;;;98.40;50.47;;;;;;;6.27;100.00;102395.91;10463739;28;20049;-58
2022/01/29 06:07:25;;;;;;;92.80;47.78;;;;;;;6.27;100.00;102380.28;10463538;28;20080;-57
2022/01/29 06:12:27;;;;;;;90.88;49.30;;;;;;;6.32;100.00;102381.97;10484028;28;20428;-59
2022/01/29 06:17:30;;;;;;;98.20;51.08;;;;;;;6.38;100.00;102374.97;10462935;28;20056;-58
2022/01/29 06:22:32;;;;;;;100.15;49.55;;;;;;;6.45;100.00;102364.41;10462675;28;20461;-59
2022/01/29 06:27:35;;;;;;;87.18;45.40;;;;;;;6.49;100.00;102354.84;10462783;28;20055;-59
2022/01/29 06:32:37;;;;;;;91.82;46.53;;;;;;;6.53;100.00;102356.50;10461944;28;20390;-59
2022/01/29 06:37:40;;;;;;;80.18;45.55;;;;;;;6.64;100.00;102354.59;10462043;28;20049;-58
2022/01/29 06:42:42;;;;;;;83.03;44.05;;;;;;;6.59;100.00;102346.00;10461989;28;20053;-60
2022/01/29 06:47:44;;;;;;;79.63;43.28;;;;;;;6.63;100.00;102345.06;10460702;28;20053;-60
2022/01/29 06:52:46;;;;;;;98.72;50.13;;;;;;;6.72;100.00;102356.22;10483548;28;20057;-59
2022/01/29 06:57:49;;;;;;;73.40;45.55;;;;;;;6.75;100.00;102345.75;10461465;28;20070;-60
2022/01/29 07:03:11;;;;;;;77.35;43.42;;;;;;;6.84;100.00;102345.59;10461975;28;20126;-60
2022/01/29 07:08:14;;;;;;;92.28;49.55;;;;;;;6.84;100.00;102335.19;10461109;28;20049;-59
2022/01/29 07:13:16;;;;;;;86.30;48.15;;;;;;;6.90;100.00;102335.06;10460941;28;20045;-59
2022/01/29 07:18:18;;;;;;;68.82;40.90;;;;;;;6.95;100.00;102328.03;10461399;28;20075;-58
2022/01/29 07:23:21;;;;;;;85.85;50.30;;;;;;;6.94;100.00;102330.66;10460312;28;20432;-59
2022/01/29 07:28:23;;;;;;;68.20;40.30;;;;;;;7.02;100.00;102327.03;10460076;28;20052;-59
2022/01/29 07:33:25;;;;;;;70.70;40.25;;;;;;;6.99;100.00;102324.50;10480972;28;20520;-58
2022/01/29 07:38:27;;;;;;;63.95;40.58;;;;;;;7.00;100.00;102321.00;10459837;28;20061;-58
2022/01/29 07:43:30;;;;;;;72.50;40.83;;;;;;;7.08;100.00;102326.09;10459863;28;20048;-57
2022/01/29 07:48:32;;;;;;;86.90;45.88;;;;;;;7.07;100.00;102325.22;10457747;28;20052;-60
2022/01/29 07:53:34;;;;;;;74.50;43.85;;;;;;;7.14;100.00;102312.94;10458908;28;20049;-59
2022/01/29 07:58:37;;;;;;;79.05;44.50;;;;;;;7.13;100.00;102292.13;10459115;28;20063;-60
2022/01/29 08:03:40;;;;;;;81.57;43.28;;;;;;;7.20;100.00;102298.94;10458839;28;20053;-59
2022/01/29 08:08:42;;;;;;;65.40;38.63;;;;;;;7.24;100.00;102304.06;10459909;28;20051;-53
2022/01/29 08:13:48;;;;;;;75.75;40.50;;;;;;;7.27;100.00;102299.69;10478893;28;20504;-59
2022/01/29 08:18:51;;;;;;;58.50;36.38;;;;;;;7.30;100.00;102295.28;10458111;28;20060;-58
2022/01/29 08:23:53;;;;;;;59.25;36.17;;;;;;;7.47;100.00;102291.47;10457330;28;20363;-58
2022/01/29 08:28:56;;;;;;;55.00;33.28;;;;;;;7.42;100.00;102287.19;10457823;28;20060;-59
2022/01/29 08:33:58;;;;;;;49.70;32.45;;;;;;;7.59;100.00;102276.41;10456448;28;20060;-59
2022/01/29 08:39:00;;;;;;;48.63;31.25;;;;;;;7.72;100.00;102274.44;10457468;28;20057;-59
2022/01/29 08:44:03;;;;;;;44.47;29.42;;;;;;;7.63;100.00;102272.88;10456937;28;20041;-60
2022/01/29 08:49:06;;;;;;;45.78;31.50;;;;;;;7.82;100.00;102259.44;10470426;28;20043;-59
2022/01/29 08:54:08;;;;;;;44.97;31.23;;;;;;;7.83;100.00;102253.31;10463493;28;20503;-59
2022/01/29 08:59:10;;;;;;;41.03;28.98;;;;;;;7.72;100.00;102247.50;10456940;28;20056;-59
2022/01/29 09:04:13;;;;;;;55.58;33.13;;;;;;;7.73;100.00;102241.38;10456615;28;20060;-59
2022/01/29 09:09:23;;;;;;;57.58;34.80;;;;;;;7.87;100.00;102233.22;10456446;28;20401;-60
2022/01/29 09:14:25;;;;;;;53.70;37.13;;;;;;;7.83;100.00;102227.25;10456736;28;20061;-59
2022/01/29 09:19:27;;;;;;;63.65;39.55;;;;;;;7.88;100.00;102217.56;10456770;28;20057;-59
2022/01/29 09:24:30;;;;;;;54.97;38.13;;;;;;;7.75;100.00;102223.94;10456298;28;20053;-58
2022/01/29 09:29:32;;;;;;;58.35;38.22;;;;;;;7.78;100.00;102219.53;10477626;28;20485;-59
2022/01/29 09:34:35;;;;;;;47.78;34.50;;;;;;;7.66;100.00;102230.22;10456292;28;20048;-59
2022/01/29 09:39:38;;;;;;;50.17;33.33;;;;;;;7.84;100.00;102231.56;10456059;28;20057;-59
2022/01/29 09:44:42;;;;;;;52.88;34.53;;;;;;;7.89;100.00;102221.03;10455873;28;20508;-60
2022/01/29 09:49:45;;;;;;;52.35;36.10;;;;;;;8.00;100.00;102229.44;10455775;28;20071;-59
2022/01/29 09:54:48;;;;;;;44.72;31.15;;;;;;;8.16;100.00;102220.38;10456066;28;20049;-60
2022/01/29 09:59:51;;;;;;;50.00;32.63;;;;;;;8.05;100.00;102224.97;10455768;28;20060;-59
2022/01/29 10:04:55;;;;;;;40.63;27.50;;;;;;;8.12;100.00;102215.25;10454217;28;20477;-59
2022/01/29 10:10:00;;;;;;;38.97;27.38;;;;;;;8.16;100.00;102215.16;10469895;28;20047;-57
2022/01/29 10:15:07;;;;;;;39.55;29.83;;;;;;;8.30;100.00;102212.19;10467339;28;20569;-60
2022/01/29 10:20:30;;;;;;;37.75;26.23;;;;;;;8.42;100.00;102200.56;10462188;28;20049;-60
2022/01/29 10:25:34;;;;;;;32.78;22.65;;;;;;;8.40;100.00;102186.72;10462863;28;20508;-59
2022/01/29 10:30:48;;;;;;;30.75;21.48;;;;;;;8.38;100.00;102175.47;10462326;28;20053;-59
2022/01/29 10:35:58;;;;;;;30.35;20.23;;;;;;;8.43;100.00;102154.50;10462429;28;20056;-59
2022/01/29 10:41:22;;;;;;;24.60;18.92;;;;;;;8.49;100.00;102149.09;10462816;28;20055;-59
2022/01/29 10:46:29;;;;;;;24.20;17.60;;;;;;;8.48;100.00;102147.41;10462076;28;20041;-59
2022/01/29 10:51:32;;;;;;;24.58;17.50;;;;;;;8.56;100.00;102145.44;10475437;28;20052;-60
2022/01/29 10:57:17;;;;;;;18.90;13.07;;;;;;;8.65;100.00;102129.50;10461613;28;20405;-60
2022/01/29 11:02:24;;;;;;;17.38;11.55;;;;;;;8.80;100.00;102132.59;10436456;28;20059;-59
2022/01/29 11:07:29;;;;;;;11.85;8.93;;;;;;;9.10;100.00;102133.47;10461652;28;20052;-60
2022/01/29 11:12:31;;;;;;;9.25;7.50;;;;;;;8.97;100.00;102135.56;10461361;28;20084;-59
2022/01/29 11:17:34;;;;;;;8.13;6.35;;;;;;;8.97;100.00;102117.28;10460584;28;20049;-59
2022/01/29 11:22:38;;;;;;;9.63;5.75;;;;;;;9.21;100.00;102100.03;10460125;28;20064;-60
2022/01/29 11:27:41;;;;;;;7.43;4.88;;;;;;;9.00;100.00;102092.84;10460527;28;20064;-55
2022/01/29 11:32:53;;;;;;;6.13;3.72;;;;;;;9.26;100.00;102077.22;10478989;28;20132;-58
2022/01/29 11:38:02;;;;;;;5.20;3.53;;;;;;;9.36;100.00;102063.84;10460200;28;20504;-59
2022/01/29 11:43:10;;;;;;;6.45;3.28;;;;;;;9.60;100.00;102050.00;10459838;28;20045;-59
2022/01/29 11:48:35;;;;;;;5.38;3.28;;;;;;;9.45;100.00;102040.03;10459965;28;20056;-59
2022/01/29 11:53:49;;;;;;;7.28;3.22;;;;;;;9.28;100.00;102037.97;10459669;28;20076;-60
2022/01/29 11:59:22;;;;;;;7.55;3.63;;;;;;;9.52;100.00;102043.31;10459389;28;20055;-59
2022/01/29 12:04:48;;;;;;;6.40;2.92;;;;;;;9.49;100.00;102058.16;10459284;28;20048;-59
2022/01/29 12:10:08;;;;;;;11.60;3.20;;;;;;;9.42;100.00;102042.75;10480711;28;20108;-59
2022/01/29 12:15:10;;;;;;;2.88;2.65;;;;;;;9.60;100.00;102025.59;10459120;28;20048;-59
2022/01/29 12:20:18;;;;;;;3.60;2.78;;;;;;;9.54;100.00;102041.50;10458406;28;20080;-59
2022/01/29 12:25:27;;;;;;;4.45;2.78;;;;;;;9.48;100.00;102030.34;10458252;28;20489;-59
2022/01/29 12:30:35;;;;;;;3.63;2.17;;;;;;;9.59;100.00;102032.56;10457885;28;20128;-60
2022/01/29 12:35:57;;;;;;;4.32;3.03;;;;;;;9.52;100.00;102033.69;10457735;28;20049;-59
2022/01/29 12:41:03;;;;;;;;;;;;;;;9.64;100.00;101994.06;10457719;28;20512;-60
2022/01/29 12:46:13;;;;;;;4.00;2.53;;;;;;;9.41;100.00;101983.53;10457510;28;19927;-59
2022/01/29 12:51:15;;;;;;;5.75;2.42;;;;;;;9.55;100.00;101983.06;10457157;28;20045;-59
2022/01/29 12:56:18;;;;;;;4.28;2.40;;;;;;;9.71;100.00;101986.84;10456779;28;20512;-60
2022/01/29 13:01:25;;;;;;;4.15;2.17;;;;;;;9.48;100.00;101961.50;10456048;28;20045;-59
2022/01/29 13:06:28;;;;;;;2.80;2.30;;;;;;;9.59;100.00;101956.75;10456737;28;20049;-60
2022/01/29 13:11:31;;;;;;;6.88;2.45;;;;;;;9.60;100.00;101984.63;10456642;28;20126;-58
2022/01/29 13:16:33;;;;;;;4.07;2.05;;;;;;;9.62;100.00;101974.97;10456326;28;20056;-59
2022/01/29 13:21:35;;;;;;;7.10;2.97;;;;;;;9.62;100.00;101966.28;10456886;28;20049;-58
2022/01/29 13:26:38;;;;;;;5.07;1.90;;;;;;;9.61;100.00;101961.94;10456678;28;20062;-59
2022/01/29 13:31:45;;;;;;;6.90;2.17;;;;;;;9.82;100.00;101958.56;10455035;28;20045;-59
2022/01/29 13:36:48;;;;;;;2.38;1.50;;;;;;;9.87;100.00;101953.19;10456058;28;20431;-59
2022/01/29 13:42:12;;;;;;;2.80;2.13;;;;;;;9.83;100.00;101922.78;10455858;28;20060;-60
2022/01/29 13:47:17;;;;;;;2.33;1.77;;;;;;;9.82;100.00;101960.34;10458603;28;20126;-60
2022/01/29 13:52:23;;;;;;;4.15;2.17;;;;;;;9.91;100.00;101954.75;10462704;28;20057;-59
2022/01/29 13:57:25;;;;;;;4.38;2.15;;;;;;;9.87;100.00;101955.78;10464103;28;20045;-59
2022/01/29 14:02:27;;;;;;;6.55;2.38;;;;;;;9.97;100.00;101958.91;10462683;28;20048;-59
2022/01/29 14:07:36;;;;;;;2.47;2.13;;;;;;;9.96;100.00;101959.84;10463651;28;20052;-61
2022/01/29 14:12:58;;;;;;;3.58;1.88;;;;;;;9.86;100.00;101957.53;10463325;28;20563;-59
2022/01/29 14:18:01;;;;;;;6.20;2.35;;;;;;;9.86;100.00;101948.84;10483884;28;20052;-60
2022/01/29 14:23:03;;;;;;;5.80;2.47;;;;;;;9.88;100.00;101954.03;10463068;28;20057;-58
2022/01/29 14:28:06;;;;;;;8.18;2.60;;;;;;;9.86;100.00;101957.53;10463750;28;20048;-58
2022/01/29 14:33:09;;;;;;;7.68;2.78;;;;;;;9.96;100.00;101980.75;10462515;28;20057;-58
2022/01/29 14:38:12;;;;;;;5.00;1.95;;;;;;;9.78;100.00;101956.09;10462457;28;20060;-59
2022/01/29 14:43:14;;;;;;;2.55;1.65;;;;;;;9.92;100.00;101940.78;10460985;28;20452;-58
2022/01/29 14:48:17;;;;;;;6.93;2.45;;;;;;;10.02;100.00;101925.63;10461874;28;20044;-59
2022/01/29 14:53:20;;;;;;;4.63;1.30;;;;;;;9.85;100.00;101974.16;10463548;28;20465;-54
2022/01/29 14:58:22;;;;;;;4.53;1.63;;;;;;;9.91;100.00;101935.59;10481253;28;20055;-61
2022/01/29 15:03:26;;;;;;;3.28;1.63;;;;;;;9.91;100.00;101965.22;10462261;28;20049;-59
2022/01/29 15:08:28;;;;;;;6.43;1.90;;;;;;;9.94;100.00;101925.88;10461771;28;20076;-60
2022/01/29 15:13:31;;;;;;;6.88;1.98;;;;;;;9.78;100.00;101933.41;10460785;28;20428;-60
2022/01/29 15:18:33;;;;;;;5.28;1.63;;;;;;;9.84;100.00;101934.97;10460674;28;20052;-58
2022/01/29 15:23:36;;;;;;;4.93;1.88;;;;;;;9.78;100.00;101928.19;10460922;28;20053;-58
2022/01/29 15:28:38;;;;;;;7.28;1.60;;;;;;;9.66;100.00;101919.00;10460683;28;20041;-58
2022/01/29 15:33:40;;;;;;;4.30;1.92;;;;;;;9.68;100.00;101934.66;10458349;28;20077;-59
2022/01/29 15:38:43;;;;;;;4.05;1.83;;;;;;;9.73;100.00;101943.19;10481210;28;20556;-60
2022/01/29 15:43:45;;;;;;;5.85;1.58;;;;;;;9.80;100.00;101935.97;10459787;28;20068;-58
2022/01/29 15:48:48;;;;;;;5.70;2.22;;;;;;;9.78;100.00;101927.34;10459451;28;20076;-61
2022/01/29 15:53:50;;;;;;;7.38;1.80;;;;;;;9.89;100.00;101943.50;10459600;28;20040;-60
2022/01/29 15:58:53;;;;;;;4.28;1.73;;;;;;;9.88;100.00;101954.88;10459191;28;20478;-60
2022/01/29 16:03:55;;;;;;;6.95;2.17;;;;;;;10.02;100.00;101946.53;10458995;28;20412;-59
2022/01/29 16:08:57;;;;;;;4.38;1.40;;;;;;;9.92;100.00;101956.47;10458435;28;20048;-60
2022/01/29 16:14:00;;;;;;;7.45;2.20;;;;;;;9.93;100.00;101968.63;10458530;28;20421;-59
2022/01/29 16:19:02;;;;;;;5.00;2.25;;;;;;;10.06;100.00;101973.44;10481663;28;20087;-58
2022/01/29 16:24:05;;;;;;;9.98;2.85;;;;;;;9.92;100.00;101969.56;10459741;28;20056;-60
2022/01/29 16:29:07;;;;;;;11.60;3.03;;;;;;;9.92;100.00;101979.16;10458300;28;20057;-60
2022/01/29 16:34:11;;;;;;;13.93;2.60;;;;;;;9.81;100.00;101997.84;10457812;28;20049;-60
2022/01/29 16:39:13;;;;;;;7.35;2.88;;;;;;;9.85;100.00;102009.91;10457006;28;20045;-59
2022/01/29 16:44:16;;;;;;;11.35;2.40;;;;;;;9.60;100.00;102010.78;10456073;28;20482;-59
2022/01/29 16:49:19;;;;;;;7.50;2.22;;;;;;;9.74;100.00;102015.53;10457692;28;20127;-60
2022/01/29 16:54:23;;;;;;;8.48;2.33;;;;;;;9.75;100.00;102025.09;10457399;28;20056;-59
2022/01/29 16:59:25;;;;;;;9.32;2.20;;;;;;;9.69;100.00;102042.75;10466648;28;20071;-59
2022/01/29 17:04:28;;;;;;;14.77;2.85;;;;;;;9.65;100.00;102042.84;10461493;28;20083;-60
2022/01/29 17:09:30;;;;;;;14.43;2.47;;;;;;;9.63;100.00;102060.34;10456747;28;20053;-59
2022/01/29 17:14:32;;;;;;;13.25;2.85;;;;;;;9.60;100.00;102055.22;10456781;28;20075;-59
2022/01/29 17:19:35;;;;;;;14.00;3.50;;;;;;;9.59;100.00;102084.03;10456707;28;20045;-58
2022/01/29 17:24:37;;;;;;;15.10;2.63;;;;;;;9.44;100.00;102073.16;10454532;28;20065;-60
2022/01/29 17:29:41;;;;;;;15.77;4.15;;;;;;;9.45;100.00;102087.09;10456648;28;20055;-59
2022/01/29 17:34:43;;;;;;;12.63;3.90;;;;;;;9.38;100.00;102107.34;10456255;28;20490;-60
2022/01/29 17:39:47;;;;;;;15.65;3.95;;;;;;;9.36;100.00;102105.69;10456070;28;20524;-59
2022/01/29 17:44:50;;;;;;;17.42;3.90;;;;;;;9.34;100.00;102129.25;10475943;28;20088;-60
2022/01/29 17:49:52;;;;;;;14.80;3.10;;;;;;;9.27;100.00;102125.97;10455985;28;20053;-58
2022/01/29 17:54:55;;;;;;;15.45;4.50;;;;;;;9.17;100.00;102147.22;10456232;28;20049;-59
2022/01/29 18:00:04;;;;;;;16.70;3.72;;;;;;;9.20;100.00;102150.56;10455764;28;20053;-60
2022/01/29 18:05:07;;;;;;;22.95;4.20;;;;;;;9.17;100.00;102166.34;10455607;28;20052;-60
2022/01/29 18:10:09;;;;;;;13.68;3.67;;;;;;;9.19;100.00;102166.31;10455502;28;20413;-58
2022/01/29 18:15:12;;;;;;;22.52;4.40;;;;;;;9.09;100.00;102166.59;10455587;28;20496;-59
2022/01/29 18:20:14;;;;;;;27.40;5.30;;;;;;;8.96;98.22;102185.25;10455227;28;20412;-58
2022/01/29 18:25:16;;;;;;;28.92;6.65;;;;;;;8.96;95.51;102191.34;10469896;28;20057;-58
2022/01/29 18:30:20;;;;;;;25.65;5.03;;;;;;;8.89;95.87;102213.28;10455142;28;20440;-58
2022/01/29 18:35:22;;;;;;;24.08;5.63;;;;;;;8.97;92.32;102200.88;10461508;28;20128;-59
2022/01/29 18:40:29;;;;;;;25.05;5.03;;;;;;;8.83;92.73;102213.50;10462090;28;20118;-59
2022/01/29 18:45:31;;;;;;;35.15;6.57;;;;;;;8.76;91.44;102210.19;10462170;28;20511;-57
2022/01/29 18:50:34;;;;;;;28.88;5.72;;;;;;;8.61;91.60;102215.78;10462307;28;20041;-59
2022/01/29 18:55:38;;;;;;;30.15;6.97;;;;;;;8.54;91.37;102225.56;10461672;28;20055;-58
2022/01/29 19:00:41;;;;;;;24.73;4.72;;;;;;;8.55;87.60;102229.88;10461422;28;20060;-59
2022/01/29 19:05:43;;;;;;;26.92;4.90;;;;;;;8.36;88.02;102227.69;10484009;28;20074;-57
2022/01/29 19:10:48;;;;;;;27.10;6.22;;;;;;;8.32;87.29;102249.56;10460972;28;20081;-58
2022/01/29 19:15:52;;;;;;;27.80;5.40;;;;;;;8.21;87.37;102258.56;10460879;28;20060;-58
2022/01/29 19:20:55;;;;;;;37.03;5.97;;;;;;;8.02;87.89;102277.25;10461248;28;20056;-58
2022/01/29 19:25:57;;;;;;;29.17;6.18;;;;;;;7.93;88.77;102270.47;10460508;28;20067;-58
2022/01/29 19:31:00;;;;;;;36.30;5.57;;;;;;;7.94;87.36;102272.19;10461048;28;20053;-57
2022/01/29 19:36:03;;;;;;;22.17;5.85;;;;;;;7.90;89.06;102267.06;10460516;28;20053;-58
2022/01/29 19:41:05;;;;;;;32.80;6.22;;;;;;;7.91;86.99;102287.06;10460034;28;20049;-56
2022/01/29 19:46:07;;;;;;;29.25;5.88;;;;;;;7.69;90.17;102295.34;10480626;28;20048;-58
2022/01/29 19:51:21;;;;;;;30.88;6.25;;;;;;;7.78;89.33;102307.31;10459489;28;20049;-58
2022/01/29 19:56:24;;;;;;;29.80;6.30;;;;;;;7.72;90.57;102304.88;10459480;28;20056;-58
2022/01/29 20:01:26;;;;;;;31.63;7.68;;;;;;;7.72;89.88;102310.06;10458310;28;20063;-58
2022/01/29 20:06:30;;;;;;;30.63;6.60;;;;;;;7.75;89.11;102305.66;10458831;28;20584;-58
2022/01/29 20:11:34;;;;;;;22.27;5.97;;;;;;;7.52;90.09;102313.09;10459883;28;20071;-59
2022/01/29 20:16:36;;;;;;;25.63;5.63;;;;;;;7.58;90.24;102320.75;10458579;28;20509;-57
2022/01/29 20:21:39;;;;;;;31.88;6.45;;;;;;;7.46;90.86;102329.69;10458389;28;20049;-59
2022/01/29 20:26:42;;;;;;;26.90;6.18;;;;;;;7.48;91.01;102338.38;10480295;28;20089;-56
2022/01/29 20:31:44;;;;;;;40.05;8.50;;;;;;;7.38;92.48;102347.22;10456802;28;20044;-59
2022/01/29 20:36:47;;;;;;;29.60;6.55;;;;;;;7.26;93.63;102350.91;10457850;28;20485;-58
2022/01/29 20:41:49;;;;;;;24.33;7.38;;;;;;;7.32;94.11;102352.56;10458094;28;20088;-58
2022/01/29 20:46:52;;;;;;;27.20;5.60;;;;;;;7.29;92.23;102363.03;10457402;28;20052;-59
2022/01/29 20:51:55;;;;;;;38.83;10.18;;;;;;;7.36;91.26;102377.66;10457552;28;20056;-58
2022/01/29 20:56:58;;;;;;;31.25;9.13;;;;;;;7.19;92.15;102376.22;10457180;28;20053;-57
2022/01/29 21:02:02;;;;;;;29.77;6.63;;;;;;;7.23;87.94;102372.69;10457201;28;20071;-57
2022/01/29 21:07:21;;;;;;;25.10;7.07;;;;;;;7.16;88.23;102391.06;10478500;28;20148;-56
2022/01/29 21:12:24;;;;;;;24.70;4.82;;;;;;;7.18;86.84;102384.94;10456919;28;20048;-57
2022/01/29 21:17:26;;;;;;;19.88;3.97;;;;;;;6.99;87.97;102389.63;10456228;28;20060;-59
2022/01/29 21:22:29;;;;;;;22.02;5.00;;;;;;;7.05;86.84;102388.66;10456588;28;20053;-59
2022/01/29 21:27:31;;;;;;;19.00;4.82;;;;;;;7.02;86.43;102388.69;10457078;28;20064;-57
2022/01/29 21:32:34;;;;;;;24.88;5.32;;;;;;;6.95;88.70;102400.09;10456553;28;20064;-57
2022/01/29 21:37:37;;;;;;;23.00;7.45;;;;;;;6.90;88.80;102404.53;10456522;28;20056;-58
2022/01/29 21:42:40;;;;;;;25.52;5.65;;;;;;;6.96;90.09;102396.59;10456117;28;20059;-57
2022/01/29 21:47:42;;;;;;;23.00;4.57;;;;;;;6.77;92.18;102409.06;10472867;28;20029;-55
2022/01/29 21:52:44;;;;;;;24.10;6.18;;;;;;;6.76;92.76;102394.31;10461612;28;20049;-58
2022/01/29 21:57:47;;;;;;;22.05;5.13;;;;;;;6.64;94.23;102388.44;10455798;28;20064;-59
2022/01/29 22:02:49;;;;;;;24.55;4.82;;;;;;;6.60;94.70;102399.75;10455048;28;20060;-57
2022/01/29 22:07:53;;;;;;;25.67;4.28;;;;;;;6.47;95.67;102396.50;10457423;28;20120;-58
2022/01/29 22:12:55;;;;;;;24.75;4.88;;;;;;;6.56;96.50;102415.47;10463742;28;20048;-59
2022/01/29 22:17:58;;;;;;;25.63;4.28;;;;;;;6.56;95.34;102410.25;10463175;28;20048;-60
2022/01/29 22:23:01;;;;;;;32.90;5.07;;;;;;;6.62;92.79;102426.66;10462723;28;20063;-59
2022/01/29 22:28:03;;;;;;;28.70;5.32;;;;;;;6.62;92.64;102425.78;10484036;28;20485;-58
2022/01/29 22:33:05;;;;;;;24.42;4.90;;;;;;;6.53;92.36;102433.72;10462842;28;20048;-58
2022/01/29 22:38:09;;;;;;;30.92;5.00;;;;;;;6.57;91.78;102431.03;10462831;28;20045;-60
2022/01/29 22:43:11;;;;;;;32.45;5.78;;;;;;;6.50;91.12;102437.22;10462396;28;20049;-59
2022/01/29 22:48:13;;;;;;;27.83;7.20;;;;;;;6.41;90.56;102447.75;10462248;28;20049;-60
2022/01/29 22:53:16;;;;;;;23.38;6.13;;;;;;;6.37;90.83;102462.56;10461504;28;20508;-58
2022/01/29 22:58:18;;;;;;;28.88;6.03;;;;;;;6.40;90.29;102457.28;10461601;28;20409;-59
2022/01/29 23:03:21;;;;;;;31.10;5.07;;;;;;;6.28;91.13;102465.25;10461416;28;20063;-57
2022/01/29 23:08:23;;;;;;;26.05;5.43;;;;;;;6.28;91.30;102462.66;10472803;28;20029;-56